Time;durP1;ratioP1;P1;durP2;ratioP2;P2;SDS_P1;SDS_P2;PMS_P1;PMS_P2;Temp;Humidity;BMP_temperature;BMP_pressure;BME280_temperature;BME280_humidity;BME280_pressure;Samples;Min_cycle;Max_cycle;Signal;HPM_P1;HPM_P2
2023/01/31 00:00:03;;;;;;;10.70;5.80;;;;;;;4.41;68.44;98218.06;233750;1193;138612;-70
2023/01/31 00:05:26;;;;;;;16.10;6.30;;;;;;;4.49;68.23;98213.48;233431;1193;139331;-71
2023/01/31 00:10:30;;;;;;;11.60;6.00;;;;;;;4.44;68.15;98214.75;234609;1195;139002;-70
2023/01/31 00:15:33;;;;;;;8.90;5.20;;;;;;;4.33;68.18;98210.59;234626;1192;139114;-71
2023/01/31 00:20:36;;;;;;;13.20;5.80;;;;;;;4.16;68.86;98217.02;234593;1195;138207;-69
2023/01/31 00:25:40;;;;;;;10.00;5.40;;;;;;;4.06;69.07;98223.67;235211;1194;138727;-70
2023/01/31 00:30:44;;;;;;;10.70;4.80;;;;;;;3.99;69.44;98221.36;234181;1193;138609;-70
2023/01/31 00:35:47;;;;;;;10.30;4.70;;;;;;;4.09;69.54;98226.49;234394;1193;138854;-71
2023/01/31 00:40:54;;;;;;;8.60;4.10;;;;;;;4.15;69.57;98234.14;234001;1194;139665;-71
2023/01/31 00:45:57;;;;;;;8.00;4.20;;;;;;;4.16;69.41;98240.56;232960;1193;138596;-70
2023/01/31 00:51:01;;;;;;;7.20;3.70;;;;;;;4.18;69.14;98237.47;235350;1193;138591;-71
2023/01/31 00:56:10;;;;;;;7.30;3.60;;;;;;;4.16;69.37;98241.62;234548;1194;138318;-71
2023/01/31 01:01:25;;;;;;;7.70;3.90;;;;;;;4.12;69.75;98241.83;233695;1193;138211;-69
2023/01/31 01:06:29;;;;;;;7.20;4.10;;;;;;;4.09;69.71;98257.95;235268;1194;138223;-69
2023/01/31 01:18:39;;;;;;;7.70;4.30;;;;;;;4.25;69.41;98271.02;234027;1196;138976;-70
2023/01/31 01:23:43;;;;;;;9.00;4.30;;;;;;;4.24;69.10;98272.81;234610;1193;138889;-70
2023/01/31 01:28:47;;;;;;;8.60;3.50;;;;;;;4.23;69.31;98274.27;231899;1195;138485;-70
2023/01/31 01:33:50;;;;;;;8.10;4.20;;;;;;;4.18;69.42;98270.48;234402;1197;138230;-70
2023/01/31 01:38:54;;;;;;;9.30;4.80;;;;;;;4.17;69.49;98269.69;235114;1193;138069;-71
2023/01/31 01:44:00;;;;;;;10.00;5.10;;;;;;;4.08;69.70;98280.13;235184;1194;138909;-70
2023/01/31 01:49:36;;;;;;;7.50;4.70;;;;;;;4.04;69.68;98288.00;235150;1193;139309;-71
2023/01/31 01:54:54;;;;;;;10.50;5.00;;;;;;;4.11;69.98;98292.60;232739;1193;139022;-70
2023/01/31 02:00:13;;;;;;;9.70;5.10;;;;;;;4.18;69.79;98295.05;235284;1192;137517;-71
2023/01/31 02:05:22;;;;;;;10.30;5.00;;;;;;;4.13;69.89;98304.60;233903;1193;138241;-70
2023/01/31 02:10:28;;;;;;;7.20;4.50;;;;;;;4.10;69.98;98305.49;234676;1192;138698;-70
2023/01/31 02:15:33;;;;;;;7.10;3.90;;;;;;;4.07;70.40;98312.44;235449;1194;138204;-70
2023/01/31 02:21:40;;;;;;;5.40;2.90;;;;;;;4.06;70.39;98317.42;235097;1193;138529;-70
2023/01/31 02:26:55;;;;;;;5.40;2.70;;;;;;;3.99;70.40;98319.65;233759;1194;140890;-70
2023/01/31 02:32:32;;;;;;;8.20;3.00;;;;;;;4.00;70.89;98326.64;233222;1193;139105;-70
2023/01/31 02:38:11;;;;;;;9.30;3.30;;;;;;;4.15;70.51;98332.61;234700;1193;140815;-71
2023/01/31 02:43:20;;;;;;;8.30;3.00;;;;;;;4.19;70.04;98337.66;235029;1193;140572;-71
2023/01/31 02:48:44;;;;;;;7.90;3.10;;;;;;;4.15;69.92;98348.23;230759;1193;138602;-71
2023/01/31 02:53:59;;;;;;;11.40;4.10;;;;;;;4.13;70.09;98353.79;231566;1194;139033;-69
2023/01/31 02:59:04;;;;;;;10.00;3.30;;;;;;;4.06;69.65;98364.27;234390;1197;138710;-70
2023/01/31 03:04:10;;;;;;;12.10;3.60;;;;;;;3.99;69.97;98377.05;235405;1193;139577;-70
2023/01/31 03:09:21;;;;;;;11.50;3.80;;;;;;;3.98;70.16;98386.40;235140;1197;139367;-70
2023/01/31 03:14:43;;;;;;;12.90;3.80;;;;;;;4.11;69.94;98392.12;234919;1196;139033;-70
2023/01/31 03:20:19;;;;;;;14.60;4.20;;;;;;;4.24;69.49;98396.94;235232;1193;138839;-71
2023/01/31 03:25:26;;;;;;;10.60;3.20;;;;;;;4.30;69.03;98398.98;234877;1196;138477;-71
2023/01/31 03:30:38;;;;;;;13.70;4.00;;;;;;;4.33;68.84;98408.49;231761;1194;139056;-70
2023/01/31 03:35:47;;;;;;;9.40;2.90;;;;;;;4.37;68.44;98417.26;234039;1193;138482;-70
2023/01/31 03:41:21;;;;;;;16.00;4.10;;;;;;;4.34;67.85;98422.98;235330;1194;138212;-71
2023/01/31 03:46:32;;;;;;;14.40;4.30;;;;;;;4.33;66.68;98433.61;234398;1194;138618;-71
2023/01/31 03:51:45;;;;;;;15.30;3.50;;;;;;;4.34;66.81;98439.48;231983;1197;139647;-71
2023/01/31 03:57:41;;;;;;;13.40;4.10;;;;;;;4.37;66.37;98442.71;231454;1198;138525;-70
2023/01/31 04:02:48;;;;;;;11.70;4.20;;;;;;;4.32;66.98;98451.37;232809;1193;138817;-70
2023/01/31 04:07:52;;;;;;;11.90;4.50;;;;;;;4.37;67.13;98460.06;235102;1193;139819;-69
2023/01/31 04:12:58;;;;;;;;;;;;;;;4.50;66.72;98461.77;231201;1198;139033;-71
2023/01/31 04:18:01;;;;;;;10.80;3.20;;;;;;;4.57;66.45;98471.45;234174;1196;126245;-72
2023/01/31 04:23:05;;;;;;;17.70;4.60;;;;;;;4.57;66.29;98469.35;234884;1196;139245;-71
2023/01/31 04:28:08;;;;;;;17.20;4.50;;;;;;;4.57;66.21;98469.52;234939;1193;138777;-70
2023/01/31 04:33:18;;;;;;;18.50;4.20;;;;;;;4.58;65.94;98477.59;233707;1198;138392;-71
2023/01/31 04:38:21;;;;;;;15.90;4.30;;;;;;;4.49;65.79;98479.38;233003;1193;139431;-70
2023/01/31 04:43:24;;;;;;;16.60;4.70;;;;;;;4.41;65.50;98493.80;233544;1198;139328;-70
2023/01/31 04:48:28;;;;;;;17.70;4.30;;;;;;;4.35;65.90;98504.08;234165;1193;138386;-70
2023/01/31 04:53:32;;;;;;;10.60;3.40;;;;;;;4.30;65.83;98508.17;235319;1194;138780;-70
2023/01/31 04:58:35;;;;;;;14.10;3.40;;;;;;;4.21;65.79;98527.55;234577;1193;139228;-72
2023/01/31 05:03:39;;;;;;;10.90;3.30;;;;;;;4.16;65.69;98531.61;233280;1193;139627;-71
2023/01/31 05:08:42;;;;;;;12.10;2.80;;;;;;;4.15;65.78;98541.34;234565;1193;139828;-70
2023/01/31 05:13:46;;;;;;;11.90;3.20;;;;;;;4.08;65.80;98550.76;233396;1193;138534;-70
2023/01/31 05:18:50;;;;;;;12.60;2.50;;;;;;;4.11;66.01;98557.14;234045;1193;138395;-71
2023/01/31 05:23:53;;;;;;;13.50;2.90;;;;;;;4.14;66.31;98564.02;232723;1199;138404;-71
2023/01/31 05:28:59;;;;;;;11.10;3.20;;;;;;;4.14;66.32;98576.30;233281;1193;138879;-70
2023/01/31 05:34:03;;;;;;;8.80;2.80;;;;;;;4.07;66.09;98578.36;233518;1193;139254;-71
2023/01/31 05:39:06;;;;;;;9.40;3.20;;;;;;;4.05;66.23;98583.53;235001;1196;139365;-70
2023/01/31 05:44:10;;;;;;;14.70;3.30;;;;;;;3.97;66.20;98586.17;235095;1193;138422;-70
2023/01/31 05:49:13;;;;;;;11.00;3.10;;;;;;;3.92;66.27;98595.13;235077;1196;138910;-70
2023/01/31 05:54:17;;;;;;;9.30;2.90;;;;;;;3.91;66.29;98598.86;235207;1193;139690;-70
2023/01/31 05:59:21;;;;;;;10.60;3.10;;;;;;;4.01;66.13;98615.63;235274;1193;138845;-70
2023/01/31 06:04:24;;;;;;;11.20;2.80;;;;;;;4.11;65.40;98619.63;235183;1196;138439;-69
2023/01/31 06:09:27;;;;;;;9.80;2.90;;;;;;;4.12;65.18;98629.09;234745;1193;139262;-70
2023/01/31 06:14:31;;;;;;;10.90;3.40;;;;;;;4.14;64.33;98634.07;234154;1193;138650;-69
2023/01/31 06:19:35;;;;;;;13.50;3.90;;;;;;;4.14;64.37;98648.45;235188;1193;139402;-70
2023/01/31 06:24:38;;;;;;;12.00;5.00;;;;;;;4.04;63.64;98661.52;234779;1196;138851;-71
2023/01/31 06:36:48;;;;;;;15.70;5.00;;;;;;;3.95;63.62;98682.60;231666;1194;138546;-71
2023/01/31 06:48:31;;;;;;;12.80;3.60;;;;;;;3.92;63.86;98701.67;234596;1193;139127;-70
2023/01/31 06:53:34;;;;;;;15.10;3.50;;;;;;;3.97;63.72;98707.42;234034;1193;138833;-70
2023/01/31 06:58:38;;;;;;;15.90;3.30;;;;;;;3.99;63.96;98711.58;232633;1194;139016;-71
2023/01/31 07:03:42;;;;;;;8.40;2.30;;;;;;;4.00;64.13;98720.66;235174;1193;139142;-68
2023/01/31 07:08:45;;;;;;;11.50;3.60;;;;;;;3.97;64.19;98735.34;234575;1193;139790;-70
2023/01/31 07:13:49;;;;;;;12.50;3.90;;;;;;;3.99;64.63;98748.79;235122;1193;139354;-70
2023/01/31 07:18:53;;;;;;;12.70;3.70;;;;;;;4.18;64.27;98759.41;234812;1192;138829;-70
2023/01/31 07:23:56;;;;;;;12.00;4.00;;;;;;;4.19;64.26;98768.15;234230;1193;138352;-71
2023/01/31 07:28:59;;;;;;;11.40;4.10;;;;;;;4.23;64.32;98775.20;235348;1193;138006;-71
2023/01/31 07:34:03;;;;;;;14.60;5.00;;;;;;;4.27;63.94;98785.73;233404;1196;138498;-71
2023/01/31 07:39:09;;;;;;;11.50;3.70;;;;;;;4.22;63.87;98792.98;234548;1193;138502;-71
2023/01/31 07:44:13;;;;;;;14.10;4.90;;;;;;;4.14;63.94;98796.79;234035;1193;138585;-71
2023/01/31 07:49:17;;;;;;;13.10;4.80;;;;;;;4.14;64.13;98795.40;234135;1193;138821;-71
2023/01/31 07:54:23;;;;;;;16.20;5.10;;;;;;;4.19;64.18;98799.27;233530;1193;139221;-70
2023/01/31 07:59:28;;;;;;;14.90;4.60;;;;;;;4.20;64.10;98804.46;234004;1192;139270;-70
2023/01/31 08:04:33;;;;;;;14.40;4.60;;;;;;;4.23;64.08;98806.10;235085;1193;138501;-71
2023/01/31 08:09:38;;;;;;;15.10;4.40;;;;;;;4.22;64.01;98814.71;232230;1196;138584;-71
2023/01/31 08:14:42;;;;;;;14.90;4.60;;;;;;;4.14;64.45;98814.17;233085;1196;139010;-71
2023/01/31 08:19:46;;;;;;;15.30;5.20;;;;;;;4.18;64.38;98818.92;233072;1193;138732;-69
2023/01/31 08:24:50;;;;;;;13.60;3.90;;;;;;;4.22;64.13;98822.48;234525;1196;138569;-70
2023/01/31 08:29:55;;;;;;;13.00;4.00;;;;;;;4.26;63.91;98835.98;235280;1192;139718;-70
2023/01/31 08:35:00;;;;;;;11.80;3.90;;;;;;;4.33;63.93;98846.23;235314;1192;138853;-71
2023/01/31 08:40:06;;;;;;;16.80;4.30;;;;;;;4.41;63.85;98850.68;233155;1193;138638;-70
2023/01/31 08:45:12;;;;;;;14.00;4.40;;;;;;;4.51;63.53;98859.95;234459;1196;138753;-69
2023/01/31 08:50:17;;;;;;;15.20;4.10;;;;;;;4.56;63.29;98867.86;235324;1193;138962;-70
2023/01/31 08:55:34;;;;;;;13.20;4.30;;;;;;;4.49;63.22;98869.67;231967;1196;208583;-74
2023/01/31 09:00:39;;;;;;;20.30;4.40;;;;;;;4.49;63.53;98870.92;235256;1193;138141;-70
2023/01/31 09:05:44;;;;;;;14.60;4.40;;;;;;;4.44;63.16;98880.59;234818;1192;138413;-71
2023/01/31 09:10:51;;;;;;;17.30;4.10;;;;;;;4.38;63.35;98891.19;234741;1193;139532;-72
2023/01/31 09:16:10;;;;;;;15.90;4.80;;;;;;;4.28;63.80;98896.48;232036;1192;138944;-71
2023/01/31 09:21:19;;;;;;;14.90;4.60;;;;;;;4.28;63.81;98903.38;231984;1193;138234;-72
2023/01/31 09:26:24;;;;;;;14.70;4.20;;;;;;;4.26;63.61;98898.14;233664;1193;139028;-72
2023/01/31 09:31:30;;;;;;;15.10;4.60;;;;;;;4.21;63.70;98895.70;231658;1192;139863;-71
2023/01/31 09:36:35;;;;;;;18.30;5.10;;;;;;;4.22;63.56;98895.31;232168;1193;138474;-71
2023/01/31 09:41:54;;;;;;;21.60;5.50;;;;;;;4.22;63.07;98891.65;232946;1193;138842;-71
2023/01/31 09:47:20;;;;;;;13.60;4.10;;;;;;;4.18;63.27;98894.09;235250;1193;139662;-71
2023/01/31 09:52:26;;;;;;;14.00;4.40;;;;;;;4.15;63.14;98893.33;234726;1192;139168;-70
2023/01/31 09:58:03;;;;;;;16.80;4.40;;;;;;;4.29;62.90;98896.98;232867;1193;139099;-71
2023/01/31 10:03:17;;;;;;;16.40;4.80;;;;;;;4.37;62.70;98901.61;232532;1194;139391;-71
2023/01/31 10:08:54;;;;;;;16.80;4.80;;;;;;;4.43;62.55;98897.17;231336;1192;139043;-70
2023/01/31 10:14:10;;;;;;;15.00;4.70;;;;;;;4.31;63.39;98897.63;234416;1193;138364;-71
2023/01/31 10:19:21;;;;;;;19.40;5.00;;;;;;;4.22;64.00;98898.33;235263;1193;139593;-71
2023/01/31 10:24:53;;;;;;;15.70;5.00;;;;;;;4.19;64.88;98897.02;233800;1193;138480;-71
2023/01/31 10:30:01;;;;;;;22.40;5.10;;;;;;;4.05;65.06;98901.06;232183;1196;138868;-71
2023/01/31 10:35:15;;;;;;;15.10;4.90;;;;;;;4.03;65.85;98905.36;234287;1192;138669;-71
2023/01/31 10:40:29;;;;;;;16.80;4.60;;;;;;;3.97;65.97;98906.99;234734;1192;138740;-72
2023/01/31 10:45:33;;;;;;;16.70;4.30;;;;;;;4.01;65.96;98909.98;234746;1193;139037;-71
2023/01/31 10:51:20;;;;;;;16.00;4.80;;;;;;;4.10;65.50;98920.38;235370;1192;138991;-71
2023/01/31 10:56:56;;;;;;;17.90;5.10;;;;;;;4.14;64.92;98921.95;234707;1193;139054;-72
2023/01/31 11:02:01;;;;;;;17.10;5.40;;;;;;;4.27;65.15;98916.91;232450;1193;138541;-71
2023/01/31 11:07:06;;;;;;;13.70;4.30;;;;;;;4.33;64.61;98914.23;234249;1193;138526;-71
2023/01/31 11:12:09;;;;;;;15.10;5.10;;;;;;;4.35;64.66;98907.11;233086;1193;138398;-71
2023/01/31 11:17:21;;;;;;;17.80;4.80;;;;;;;4.43;64.78;98905.58;233267;1193;138252;-71
2023/01/31 11:22:30;;;;;;;17.10;5.80;;;;;;;4.51;64.45;98905.97;233489;1193;138273;-71
2023/01/31 11:27:41;;;;;;;18.20;6.10;;;;;;;4.48;64.55;98906.10;231524;1196;138384;-71
2023/01/31 11:32:47;;;;;;;17.80;5.30;;;;;;;4.45;64.36;98903.56;234497;1193;138860;-71
2023/01/31 11:38:19;;;;;;;16.80;5.30;;;;;;;4.40;64.22;98900.27;234955;1193;138318;-71
2023/01/31 11:43:28;;;;;;;13.70;5.60;;;;;;;4.30;64.11;98900.66;233239;1193;138697;-71
2023/01/31 11:48:40;;;;;;;17.20;5.90;;;;;;;4.32;64.09;98902.66;232862;1193;138245;-73
2023/01/31 11:53:49;;;;;;;15.20;4.30;;;;;;;4.29;63.45;98897.52;231068;1193;139332;-72
2023/01/31 11:59:05;;;;;;;15.80;4.20;;;;;;;4.22;62.86;98895.16;235404;1193;138785;-72
2023/01/31 12:04:17;;;;;;;16.60;4.10;;;;;;;4.20;62.53;98896.98;232581;1193;138445;-70
2023/01/31 12:09:25;;;;;;;15.90;4.30;;;;;;;4.19;61.68;98895.45;235302;1193;138370;-71
2023/01/31 12:14:46;;;;;;;12.50;4.00;;;;;;;4.20;60.92;98894.17;233140;1193;138814;-72
2023/01/31 12:20:04;;;;;;;10.70;4.10;;;;;;;4.17;61.23;98892.89;234004;1192;138310;-72
2023/01/31 12:25:47;;;;;;;11.00;3.90;;;;;;;4.19;62.14;98887.73;233153;1193;139499;-72
2023/01/31 12:31:11;;;;;;;11.70;3.60;;;;;;;4.18;62.14;98886.17;234667;1193;139170;-71
2023/01/31 12:36:17;;;;;;;13.70;3.90;;;;;;;4.27;62.19;98875.11;235198;1196;138457;-69
2023/01/31 12:41:37;;;;;;;13.30;3.80;;;;;;;4.35;62.22;98876.39;235315;1192;141188;-70
2023/01/31 12:46:59;;;;;;;10.80;3.70;;;;;;;4.37;61.64;98865.77;233159;1192;138478;-70
2023/01/31 12:52:34;;;;;;;14.40;4.20;;;;;;;4.47;61.23;98865.69;234033;1194;138442;-71
2023/01/31 12:57:43;;;;;;;13.40;3.70;;;;;;;4.47;60.97;98865.55;234097;1193;138548;-71
2023/01/31 13:03:24;;;;;;;14.40;4.20;;;;;;;4.57;60.68;98861.63;234630;1193;138643;-71
2023/01/31 13:08:32;;;;;;;14.40;3.70;;;;;;;4.63;59.58;98857.34;232929;1192;138658;-72
2023/01/31 13:13:42;;;;;;;15.50;4.20;;;;;;;4.79;59.11;98840.86;232618;1193;138586;-69
2023/01/31 13:18:50;;;;;;;12.00;4.10;;;;;;;4.94;58.97;98845.88;234182;1193;138831;-71
2023/01/31 13:24:02;;;;;;;10.70;3.30;;;;;;;4.95;57.90;98839.83;232751;1195;138500;-71
2023/01/31 13:29:16;;;;;;;16.60;3.90;;;;;;;4.92;58.06;98841.38;235252;1193;139078;-71
2023/01/31 13:34:35;;;;;;;12.90;4.10;;;;;;;4.97;57.70;98839.77;235528;1193;138424;-71
2023/01/31 13:39:45;;;;;;;12.10;4.00;;;;;;;4.95;57.42;98840.86;234868;1192;139498;-71
2023/01/31 13:44:49;;;;;;;12.40;3.90;;;;;;;4.95;57.51;98838.42;235249;1192;138621;-70
2023/01/31 13:50:04;;;;;;;8.60;3.40;;;;;;;4.95;58.11;98841.40;230886;1196;139015;-71
2023/01/31 13:55:20;;;;;;;10.80;3.30;;;;;;;4.94;58.48;98843.39;232973;1193;138956;-72
2023/01/31 14:00:57;;;;;;;12.00;3.70;;;;;;;4.80;58.96;98846.98;234022;1192;139287;-70
2023/01/31 14:06:02;;;;;;;12.40;4.20;;;;;;;4.74;59.64;98840.73;233391;1193;138860;-72
2023/01/31 14:12:10;;;;;;;13.90;4.40;;;;;;;4.70;59.41;98839.81;233943;1196;138529;-70
2023/01/31 14:17:34;;;;;;;13.10;4.40;;;;;;;4.64;60.10;98836.23;233250;1196;139599;-70
2023/01/31 14:22:40;;;;;;;14.60;4.90;;;;;;;4.58;59.98;98841.21;232835;1193;139842;-69
2023/01/31 14:27:50;;;;;;;15.60;4.80;;;;;;;4.56;60.26;98839.36;232654;1193;138457;-69
2023/01/31 14:33:07;;;;;;;17.30;5.80;;;;;;;4.51;60.37;98838.67;234425;1193;139429;-72
2023/01/31 14:38:22;;;;;;;15.70;4.90;;;;;;;4.49;60.87;98835.08;233500;1193;139945;-70
2023/01/31 14:43:54;;;;;;;15.90;5.70;;;;;;;4.47;60.86;98834.12;234561;1193;138481;-73
2023/01/31 14:49:33;;;;;;;15.70;5.60;;;;;;;4.47;60.96;98832.00;231727;1193;138603;-70
2023/01/31 14:54:46;;;;;;;17.90;6.40;;;;;;;4.43;61.39;98820.04;234793;1193;139446;-69
2023/01/31 14:59:51;;;;;;;18.70;5.90;;;;;;;4.41;61.36;98816.80;234678;1194;138545;-69
2023/01/31 15:05:02;;;;;;;14.20;6.30;;;;;;;4.36;61.96;98814.53;234817;1193;138674;-72
2023/01/31 15:10:46;;;;;;;18.00;6.00;;;;;;;4.41;61.71;98809.76;235522;1193;138873;-72
2023/01/31 15:15:53;;;;;;;13.90;5.40;;;;;;;4.41;61.84;98804.66;234264;1193;138723;-70
2023/01/31 15:21:03;;;;;;;16.20;4.90;;;;;;;4.39;61.97;98803.86;233049;1193;138585;-70
2023/01/31 15:26:09;;;;;;;16.00;5.20;;;;;;;4.34;61.83;98797.58;234014;1192;138521;-69
2023/01/31 15:31:40;;;;;;;12.90;5.00;;;;;;;4.31;62.16;98796.11;230855;1197;139391;-71
2023/01/31 15:36:58;;;;;;;12.20;5.10;;;;;;;4.30;63.33;98797.05;235353;1193;139136;-70
2023/01/31 15:42:23;;;;;;;16.80;5.50;;;;;;;4.26;63.94;98803.68;232176;1193;139433;-70
2023/01/31 15:47:27;;;;;;;16.40;6.10;;;;;;;4.16;64.65;98802.34;233640;1193;139629;-68
2023/01/31 15:52:33;;;;;;;15.90;6.30;;;;;;;4.15;64.76;98797.98;235395;1196;138408;-68
2023/01/31 15:57:46;;;;;;;18.30;6.70;;;;;;;4.08;64.97;98794.73;235322;1192;138328;-73
2023/01/31 16:03:24;;;;;;;21.70;7.60;;;;;;;4.02;65.46;98784.30;233604;1193;139202;-70
2023/01/31 16:08:34;;;;;;;17.80;7.50;;;;;;;3.98;65.64;98771.08;233038;1192;138684;-70
2023/01/31 16:13:40;;;;;;;16.00;6.70;;;;;;;3.93;66.42;98771.48;234932;1193;139062;-71
2023/01/31 16:18:48;;;;;;;21.40;8.30;;;;;;;3.88;66.63;98768.86;232202;1193;139439;-71
2023/01/31 16:24:10;;;;;;;17.70;7.60;;;;;;;3.92;66.64;98761.00;233620;1194;138962;-70
2023/01/31 16:29:17;;;;;;;19.30;8.90;;;;;;;3.96;66.80;98758.39;235371;1193;138774;-71
2023/01/31 16:34:26;;;;;;;21.40;9.30;;;;;;;3.92;66.98;98766.23;235150;1193;138485;-73
2023/01/31 16:39:45;;;;;;;20.30;8.70;;;;;;;3.83;67.46;98765.39;234836;1193;138583;-71
2023/01/31 16:44:49;;;;;;;20.30;8.30;;;;;;;3.82;67.80;98766.86;235417;1192;138426;-75
2023/01/31 16:50:16;;;;;;;20.30;8.80;;;;;;;3.80;68.14;98763.93;232940;1194;138721;-75
2023/01/31 16:55:23;;;;;;;18.10;7.30;;;;;;;3.87;68.11;98762.41;232527;1193;139084;-70
2023/01/31 17:00:30;;;;;;;13.40;7.70;;;;;;;3.79;68.58;98761.14;235115;1193;141199;-72
2023/01/31 17:05:38;;;;;;;16.00;7.60;;;;;;;3.76;68.94;98763.02;235274;1197;138582;-71
2023/01/31 17:10:43;;;;;;;14.70;8.00;;;;;;;3.69;68.97;98751.19;235229;1193;137989;-69
2023/01/31 17:15:53;;;;;;;14.70;7.70;;;;;;;3.57;69.35;98753.58;235391;1193;138689;-70
2023/01/31 17:20:57;;;;;;;13.80;7.10;;;;;;;3.62;69.90;98742.32;235327;1195;139065;-70
2023/01/31 17:26:01;;;;;;;13.10;8.10;;;;;;;3.67;69.67;98737.75;235192;1193;139788;-70
2023/01/31 17:31:17;;;;;;;14.90;8.30;;;;;;;3.66;69.92;98732.19;235360;1193;138731;-71
2023/01/31 17:36:21;;;;;;;17.90;9.40;;;;;;;3.65;69.88;98729.61;235276;1194;138317;-71
2023/01/31 17:41:26;;;;;;;21.30;10.90;;;;;;;3.63;70.07;98732.98;235389;1196;139446;-70
2023/01/31 17:46:30;;;;;;;15.30;8.70;;;;;;;3.67;70.07;98730.55;235349;1194;138579;-70
2023/01/31 17:51:33;;;;;;;14.90;8.60;;;;;;;3.76;69.88;98728.46;233832;1193;139642;-70
2023/01/31 17:56:37;;;;;;;14.60;8.20;;;;;;;3.85;69.74;98731.63;232474;1193;139296;-71
2023/01/31 18:01:41;;;;;;;15.20;9.20;;;;;;;3.80;69.59;98722.50;233276;1193;138269;-70
2023/01/31 18:06:44;;;;;;;17.20;9.80;;;;;;;3.78;69.70;98719.23;234089;1195;139090;-69
2023/01/31 18:11:48;;;;;;;19.60;10.50;;;;;;;3.84;69.92;98710.60;232698;1193;138947;-71
2023/01/31 18:16:53;;;;;;;22.80;10.50;;;;;;;3.80;69.80;98706.38;231100;1194;139215;-70
2023/01/31 18:21:57;;;;;;;18.10;10.00;;;;;;;3.74;69.94;98692.20;235176;1194;140631;-70
2023/01/31 18:27:01;;;;;;;19.80;10.00;;;;;;;3.76;70.17;98684.05;235117;1194;139924;-72
2023/01/31 18:32:06;;;;;;;15.50;8.70;;;;;;;3.86;70.09;98671.20;235181;1194;139095;-71
2023/01/31 18:37:15;;;;;;;16.60;8.80;;;;;;;3.89;69.94;98669.69;233879;1195;138394;-69
2023/01/31 18:42:19;;;;;;;18.60;8.50;;;;;;;3.89;70.32;98662.66;235310;1194;139932;-69
2023/01/31 18:47:24;;;;;;;18.50;8.60;;;;;;;3.91;69.87;98662.40;234510;1193;138445;-71
2023/01/31 18:52:29;;;;;;;17.00;8.20;;;;;;;3.92;69.94;98653.05;231552;1193;138724;-71
2023/01/31 18:57:33;;;;;;;13.20;6.90;;;;;;;3.96;70.24;98650.09;234674;1193;139003;-73
2023/01/31 19:02:37;;;;;;;15.00;7.50;;;;;;;3.98;70.12;98646.13;234149;1193;139397;-71
2023/01/31 19:07:40;;;;;;;11.90;6.30;;;;;;;4.04;69.90;98646.95;234272;1193;138541;-72
2023/01/31 19:12:44;;;;;;;13.40;6.80;;;;;;;4.05;69.75;98633.73;233575;1193;138384;-73
2023/01/31 19:17:47;;;;;;;15.10;6.70;;;;;;;3.96;69.89;98624.45;230291;1198;138354;-72
2023/01/31 19:22:51;;;;;;;12.80;5.60;;;;;;;3.90;70.09;98616.80;235456;1193;139488;-70
2023/01/31 19:27:54;;;;;;;13.60;5.90;;;;;;;3.91;70.20;98604.33;233592;1193;138882;-70
2023/01/31 19:32:58;;;;;;;13.00;6.20;;;;;;;3.96;70.42;98600.60;232052;1196;138709;-72
2023/01/31 19:38:01;;;;;;;13.30;6.20;;;;;;;3.93;70.53;98588.60;232399;1195;139145;-73
2023/01/31 19:43:05;;;;;;;14.20;6.20;;;;;;;3.90;70.23;98590.50;235379;1193;138304;-72
2023/01/31 19:48:08;;;;;;;13.40;6.70;;;;;;;3.85;70.42;98578.41;231931;1193;138628;-71
2023/01/31 19:53:11;;;;;;;12.40;5.80;;;;;;;3.80;70.60;98560.39;233934;1192;138691;-71
2023/01/31 19:58:15;;;;;;;13.00;5.60;;;;;;;3.78;70.59;98560.28;233727;1196;139692;-71
2023/01/31 20:03:18;;;;;;;13.10;6.10;;;;;;;3.83;70.46;98552.70;233903;1193;138995;-73
2023/01/31 20:08:23;;;;;;;13.60;6.20;;;;;;;3.87;70.37;98551.13;234663;1196;138762;-71
2023/01/31 20:13:27;;;;;;;11.50;5.60;;;;;;;3.89;70.32;98543.67;233148;1193;138406;-71
2023/01/31 20:18:31;;;;;;;11.30;5.60;;;;;;;3.91;70.27;98540.98;232226;1193;138389;-71
2023/01/31 20:23:35;;;;;;;11.70;5.30;;;;;;;3.90;70.09;98538.36;232679;1193;138534;-71
2023/01/31 20:28:39;;;;;;;10.40;5.10;;;;;;;3.93;70.32;98533.48;234593;1197;138691;-72
2023/01/31 20:33:55;;;;;;;11.50;5.40;;;;;;;3.99;69.85;98532.36;229629;1193;139152;-71
2023/01/31 20:38:58;;;;;;;12.30;5.10;;;;;;;3.98;69.98;98527.13;234174;1193;138340;-71
2023/01/31 20:44:02;;;;;;;12.90;5.70;;;;;;;3.97;69.86;98529.44;230804;1193;138557;-71
2023/01/31 20:49:07;;;;;;;14.70;5.30;;;;;;;3.95;70.32;98525.00;231060;1195;138486;-70
2023/01/31 21:01:11;;;;;;;8.30;4.70;;;;;;;3.96;70.26;98510.54;229847;1198;138940;-70
2023/01/31 21:06:15;;;;;;;11.80;4.30;;;;;;;4.06;70.16;98511.73;232211;1196;138459;-70
2023/01/31 21:11:18;;;;;;;10.40;4.80;;;;;;;4.10;70.26;98505.23;231434;1196;138365;-72
2023/01/31 21:16:22;;;;;;;11.10;5.20;;;;;;;4.13;70.09;98490.89;232045;1198;139299;-71
2023/01/31 21:21:26;;;;;;;7.80;4.00;;;;;;;4.09;70.29;98482.77;231104;1193;138524;-73
2023/01/31 21:26:29;;;;;;;8.20;3.90;;;;;;;4.10;70.50;98464.16;232971;1193;138782;-71
2023/01/31 21:31:32;;;;;;;7.70;3.50;;;;;;;4.13;70.26;98461.39;233575;1197;138605;-71
2023/01/31 21:36:36;;;;;;;7.10;3.80;;;;;;;4.09;70.38;98458.90;233038;1194;139466;-71
2023/01/31 21:47:08;;;;;;;9.50;4.00;;;;;;;4.01;70.63;98457.33;230489;1196;138514;-71
2023/01/31 21:52:11;;;;;;;7.40;4.20;;;;;;;4.00;70.86;98463.17;232938;1192;140740;-70
2023/01/31 21:57:15;;;;;;;8.10;3.90;;;;;;;4.03;70.97;98453.39;233254;1193;139055;-71
2023/01/31 22:02:18;;;;;;;8.30;4.00;;;;;;;4.04;71.08;98454.38;234158;1198;138697;-71
2023/01/31 22:07:22;;;;;;;9.00;3.70;;;;;;;4.02;71.24;98449.36;231253;1197;138433;-71
2023/01/31 22:12:25;;;;;;;8.70;4.10;;;;;;;4.04;71.01;98437.39;235117;1193;138732;-71
2023/01/31 22:17:29;;;;;;;8.30;4.40;;;;;;;4.08;71.02;98437.56;233916;1196;138594;-74
2023/01/31 22:22:32;;;;;;;9.30;4.20;;;;;;;4.06;71.12;98443.25;231577;1193;138263;-71
2023/01/31 22:27:35;;;;;;;8.50;4.20;;;;;;;4.01;71.53;98445.05;235142;1193;138363;-71
2023/01/31 22:32:39;;;;;;;8.50;4.10;;;;;;;3.99;71.72;98444.23;235522;1197;138443;-71
2023/01/31 22:37:42;;;;;;;9.10;4.50;;;;;;;4.05;71.75;98438.02;234189;1194;139278;-72
2023/01/31 22:42:45;;;;;;;9.30;4.30;;;;;;;4.11;71.25;98438.48;235143;1197;138733;-69
2023/01/31 22:47:50;;;;;;;9.40;4.40;;;;;;;4.17;71.07;98425.72;233452;1193;138081;-71
2023/01/31 22:52:53;;;;;;;8.50;4.30;;;;;;;4.17;70.97;98424.67;233395;1193;138234;-71
2023/01/31 22:57:57;;;;;;;10.70;4.20;;;;;;;4.17;71.20;98417.48;235336;1196;138938;-71
2023/01/31 23:03:01;;;;;;;5.90;3.70;;;;;;;4.18;71.18;98418.82;235237;1193;139086;-72
2023/01/31 23:08:04;;;;;;;8.10;3.90;;;;;;;4.19;71.53;98412.98;233905;1193;139217;-71
2023/01/31 23:13:08;;;;;;;7.20;3.80;;;;;;;4.20;71.40;98413.45;232233;1193;138002;-71
2023/01/31 23:18:15;;;;;;;6.80;4.10;;;;;;;4.16;71.42;98411.73;233232;1193;139137;-71
2023/01/31 23:23:19;;;;;;;9.20;3.90;;;;;;;4.14;71.40;98413.91;232212;1196;139032;-70
2023/01/31 23:28:23;;;;;;;6.70;3.60;;;;;;;4.10;71.52;98412.15;234807;1195;140545;-70
2023/01/31 23:33:26;;;;;;;9.30;4.00;;;;;;;4.07;71.92;98399.85;231996;1196;138461;-71
2023/01/31 23:38:30;;;;;;;6.20;3.80;;;;;;;4.11;72.15;98379.48;234431;1193;138628;-72
2023/01/31 23:43:33;;;;;;;8.00;4.00;;;;;;;4.09;72.12;98380.66;232979;1193;139186;-71
2023/01/31 23:48:47;;;;;;;7.00;3.50;;;;;;;4.05;72.21;98383.98;232477;1193;138917;-72
2023/01/31 23:53:51;;;;;;;6.30;3.80;;;;;;;4.10;72.38;98378.67;233363;1193;139047;-72
2023/01/31 23:58:54;;;;;;;7.00;3.80;;;;;;;4.11;71.96;98380.52;232200;1196;138093;-72
